sensor_id;sensor_type;location;lat;lon;timestamp;temperature;humidity
51996;DHT22;38010;53.264;6.592;2023-05-10T00:02:09;17.50;99.90
51996;DHT22;38010;53.264;6.592;2023-05-10T00:04:35;17.50;99.90
51996;DHT22;38010;53.264;6.592;2023-05-10T00:07:01;17.50;99.90
51996;DHT22;38010;53.264;6.592;2023-05-10T00:09:27;17.50;99.90
51996;DHT22;38010;53.264;6.592;2023-05-10T00:11:52;17.50;99.90
51996;DHT22;38010;53.264;6.592;2023-05-10T00:14:18;17.50;99.90
51996;DHT22;38010;53.264;6.592;2023-05-10T00:16:44;17.50;99.90
51996;DHT22;38010;53.264;6.592;2023-05-10T00:19:10;17.50;99.90
51996;DHT22;38010;53.264;6.592;2023-05-10T00:21:36;17.40;99.90
51996;DHT22;38010;53.264;6.592;2023-05-10T00:24:02;17.50;99.90
51996;DHT22;38010;53.264;6.592;2023-05-10T00:26:27;17.50;99.90
51996;DHT22;38010;53.264;6.592;2023-05-10T00:28:53;17.40;99.90
51996;DHT22;38010;53.264;6.592;2023-05-10T00:31:19;17.40;99.90
51996;DHT22;38010;53.264;6.592;2023-05-10T00:33:44;17.40;99.90
51996;DHT22;38010;53.264;6.592;2023-05-10T00:36:10;17.40;99.90
51996;DHT22;38010;53.264;6.592;2023-05-10T00:38:36;17.40;99.90
51996;DHT22;38010;53.264;6.592;2023-05-10T00:41:02;17.40;99.90
51996;DHT22;38010;53.264;6.592;2023-05-10T00:43:28;17.40;99.90
51996;DHT22;38010;53.264;6.592;2023-05-10T00:45:54;17.40;99.90
51996;DHT22;38010;53.264;6.592;2023-05-10T00:48:20;17.40;99.90
51996;DHT22;38010;53.264;6.592;2023-05-10T00:50:46;17.40;99.90
51996;DHT22;38010;53.264;6.592;2023-05-10T00:53:12;17.40;99.90
51996;DHT22;38010;53.264;6.592;2023-05-10T00:55:38;17.40;99.90
51996;DHT22;38010;53.264;6.592;2023-05-10T00:58:04;17.30;99.90
51996;DHT22;38010;53.264;6.592;2023-05-10T01:00:30;17.30;99.90
51996;DHT22;38010;53.264;6.592;2023-05-10T01:02:58;17.30;99.90
51996;DHT22;38010;53.264;6.592;2023-05-10T01:05:23;17.30;99.90
51996;DHT22;38010;53.264;6.592;2023-05-10T01:07:49;17.40;99.90
51996;DHT22;38010;53.264;6.592;2023-05-10T01:10:15;17.30;99.90
51996;DHT22;38010;53.264;6.592;2023-05-10T01:12:43;17.30;99.90
51996;DHT22;38010;53.264;6.592;2023-05-10T01:15:11;17.30;99.90
51996;DHT22;38010;53.264;6.592;2023-05-10T01:17:38;17.30;99.90
51996;DHT22;38010;53.264;6.592;2023-05-10T01:20:06;17.30;99.90
51996;DHT22;38010;53.264;6.592;2023-05-10T01:36:23;17.30;99.90
51996;DHT22;38010;53.264;6.592;2023-05-10T01:39:02;17.30;99.90
51996;DHT22;38010;53.264;6.592;2023-05-10T01:44:15;17.30;99.90
51996;DHT22;38010;53.264;6.592;2023-05-10T01:46:42;17.30;99.90
51996;DHT22;38010;53.264;6.592;2023-05-10T01:49:19;17.30;99.90
51996;DHT22;38010;53.264;6.592;2023-05-10T01:51:49;17.30;99.90
51996;DHT22;38010;53.264;6.592;2023-05-10T01:54:19;17.30;99.90
51996;DHT22;38010;53.264;6.592;2023-05-10T01:56:48;17.30;99.90
51996;DHT22;38010;53.264;6.592;2023-05-10T01:59:18;17.30;99.90
51996;DHT22;38010;53.264;6.592;2023-05-10T02:01:45;17.20;99.90
51996;DHT22;38010;53.264;6.592;2023-05-10T02:04:15;17.30;99.90
51996;DHT22;38010;53.264;6.592;2023-05-10T02:06:43;17.30;99.90
51996;DHT22;38010;53.264;6.592;2023-05-10T02:09:11;17.30;99.90
51996;DHT22;38010;53.264;6.592;2023-05-10T02:11:39;17.30;99.90
51996;DHT22;38010;53.264;6.592;2023-05-10T02:14:09;17.30;99.90
51996;DHT22;38010;53.264;6.592;2023-05-10T02:16:38;17.30;99.90
51996;DHT22;38010;53.264;6.592;2023-05-10T02:19:05;17.30;99.90
51996;DHT22;38010;53.264;6.592;2023-05-10T02:21:31;17.30;99.90
51996;DHT22;38010;53.264;6.592;2023-05-10T02:24:00;17.30;99.90
51996;DHT22;38010;53.264;6.592;2023-05-10T02:26:27;17.20;99.90
51996;DHT22;38010;53.264;6.592;2023-05-10T02:28:54;17.30;99.90
51996;DHT22;38010;53.264;6.592;2023-05-10T02:31:22;17.20;99.90
51996;DHT22;38010;53.264;6.592;2023-05-10T02:33:48;17.30;99.90
51996;DHT22;38010;53.264;6.592;2023-05-10T02:36:15;17.20;99.90
51996;DHT22;38010;53.264;6.592;2023-05-10T02:38:41;17.20;99.90
51996;DHT22;38010;53.264;6.592;2023-05-10T02:41:08;17.20;99.90
51996;DHT22;38010;53.264;6.592;2023-05-10T02:43:35;17.20;99.90
51996;DHT22;38010;53.264;6.592;2023-05-10T02:46:02;17.20;99.90
51996;DHT22;38010;53.264;6.592;2023-05-10T02:48:28;17.20;99.90
51996;DHT22;38010;53.264;6.592;2023-05-10T02:50:55;17.20;99.90
51996;DHT22;38010;53.264;6.592;2023-05-10T02:53:31;17.20;99.90
51996;DHT22;38010;53.264;6.592;2023-05-10T02:56:05;17.20;99.90
51996;DHT22;38010;53.264;6.592;2023-05-10T02:58:32;17.20;99.90
51996;DHT22;38010;53.264;6.592;2023-05-10T03:00:59;17.20;99.90
51996;DHT22;38010;53.264;6.592;2023-05-10T03:03:25;17.20;99.90
51996;DHT22;38010;53.264;6.592;2023-05-10T03:05:51;17.20;99.90
51996;DHT22;38010;53.264;6.592;2023-05-10T03:08:19;17.20;99.90
51996;DHT22;38010;53.264;6.592;2023-05-10T03:13:38;17.20;99.90
51996;DHT22;38010;53.264;6.592;2023-05-10T03:16:14;17.20;99.90
51996;DHT22;38010;53.264;6.592;2023-05-10T03:18:56;17.20;99.90
51996;DHT22;38010;53.264;6.592;2023-05-10T03:21:26;17.20;99.90
51996;DHT22;38010;53.264;6.592;2023-05-10T03:23:59;17.20;99.90
51996;DHT22;38010;53.264;6.592;2023-05-10T03:26:27;17.20;99.90
51996;DHT22;38010;53.264;6.592;2023-05-10T03:28:54;17.10;99.90
51996;DHT22;38010;53.264;6.592;2023-05-10T03:31:21;17.20;99.90
51996;DHT22;38010;53.264;6.592;2023-05-10T03:33:50;17.20;99.90
51996;DHT22;38010;53.264;6.592;2023-05-10T03:36:17;17.10;99.90
51996;DHT22;38010;53.264;6.592;2023-05-10T03:38:42;17.10;99.90
51996;DHT22;38010;53.264;6.592;2023-05-10T03:41:08;17.10;99.90
51996;DHT22;38010;53.264;6.592;2023-05-10T03:43:34;17.10;99.90
51996;DHT22;38010;53.264;6.592;2023-05-10T03:46:05;17.10;99.90
51996;DHT22;38010;53.264;6.592;2023-05-10T03:48:33;17.20;99.90
51996;DHT22;38010;53.264;6.592;2023-05-10T03:50:59;17.10;99.90
51996;DHT22;38010;53.264;6.592;2023-05-10T03:53:25;17.10;99.90
51996;DHT22;38010;53.264;6.592;2023-05-10T03:55:52;17.10;99.90
51996;DHT22;38010;53.264;6.592;2023-05-10T03:58:17;17.10;99.90
51996;DHT22;38010;53.264;6.592;2023-05-10T04:00:44;17.10;99.90
51996;DHT22;38010;53.264;6.592;2023-05-10T04:03:14;17.10;99.90
51996;DHT22;38010;53.264;6.592;2023-05-10T04:05:39;17.10;99.90
51996;DHT22;38010;53.264;6.592;2023-05-10T04:08:05;17.10;99.90
51996;DHT22;38010;53.264;6.592;2023-05-10T04:10:32;17.10;99.90
51996;DHT22;38010;53.264;6.592;2023-05-10T04:12:57;17.10;99.90
51996;DHT22;38010;53.264;6.592;2023-05-10T04:15:23;17.10;99.90
51996;DHT22;38010;53.264;6.592;2023-05-10T04:17:49;17.10;99.90
51996;DHT22;38010;53.264;6.592;2023-05-10T04:20:15;17.10;99.90
51996;DHT22;38010;53.264;6.592;2023-05-10T04:22:41;17.10;99.90
51996;DHT22;38010;53.264;6.592;2023-05-10T04:25:07;17.10;99.90
51996;DHT22;38010;53.264;6.592;2023-05-10T04:27:33;17.10;99.90
51996;DHT22;38010;53.264;6.592;2023-05-10T04:29:59;17.10;99.90
51996;DHT22;38010;53.264;6.592;2023-05-10T04:32:24;17.10;99.90
51996;DHT22;38010;53.264;6.592;2023-05-10T04:34:50;17.10;99.90
51996;DHT22;38010;53.264;6.592;2023-05-10T04:37:17;17.10;99.90
51996;DHT22;38010;53.264;6.592;2023-05-10T04:39:43;17.10;99.90
51996;DHT22;38010;53.264;6.592;2023-05-10T04:42:09;17.10;99.90
51996;DHT22;38010;53.264;6.592;2023-05-10T04:44:35;17.00;99.90
51996;DHT22;38010;53.264;6.592;2023-05-10T04:47:01;17.10;99.90
51996;DHT22;38010;53.264;6.592;2023-05-10T04:49:29;17.00;99.90
51996;DHT22;38010;53.264;6.592;2023-05-10T04:51:55;17.00;99.90
51996;DHT22;38010;53.264;6.592;2023-05-10T04:54:21;17.10;99.90
51996;DHT22;38010;53.264;6.592;2023-05-10T04:56:47;17.00;99.90
51996;DHT22;38010;53.264;6.592;2023-05-10T04:59:12;17.10;99.90
51996;DHT22;38010;53.264;6.592;2023-05-10T05:01:39;17.10;99.90
51996;DHT22;38010;53.264;6.592;2023-05-10T05:04:05;17.10;99.90
51996;DHT22;38010;53.264;6.592;2023-05-10T05:06:30;17.10;99.90
51996;DHT22;38010;53.264;6.592;2023-05-10T05:08:56;17.00;99.90
51996;DHT22;38010;53.264;6.592;2023-05-10T05:11:22;17.00;99.90
51996;DHT22;38010;53.264;6.592;2023-05-10T05:13:47;17.00;99.90
51996;DHT22;38010;53.264;6.592;2023-05-10T05:16:13;17.10;99.90
51996;DHT22;38010;53.264;6.592;2023-05-10T05:18:39;17.00;99.90
51996;DHT22;38010;53.264;6.592;2023-05-10T05:21:17;17.00;99.90
51996;DHT22;38010;53.264;6.592;2023-05-10T05:23:44;17.10;99.90
51996;DHT22;38010;53.264;6.592;2023-05-10T05:26:10;17.00;99.90
51996;DHT22;38010;53.264;6.592;2023-05-10T05:28:36;17.00;99.90
51996;DHT22;38010;53.264;6.592;2023-05-10T05:31:06;17.00;99.90
51996;DHT22;38010;53.264;6.592;2023-05-10T05:33:33;17.00;99.90
51996;DHT22;38010;53.264;6.592;2023-05-10T05:36:03;17.00;99.90
51996;DHT22;38010;53.264;6.592;2023-05-10T05:38:29;17.00;99.90
51996;DHT22;38010;53.264;6.592;2023-05-10T05:40:54;17.00;99.90
51996;DHT22;38010;53.264;6.592;2023-05-10T05:43:20;17.00;99.90
51996;DHT22;38010;53.264;6.592;2023-05-10T05:45:46;17.00;99.90
51996;DHT22;38010;53.264;6.592;2023-05-10T05:48:11;17.00;99.90
51996;DHT22;38010;53.264;6.592;2023-05-10T05:50:37;17.00;99.90
51996;DHT22;38010;53.264;6.592;2023-05-10T05:53:03;17.00;99.90
51996;DHT22;38010;53.264;6.592;2023-05-10T05:55:28;17.10;99.90
51996;DHT22;38010;53.264;6.592;2023-05-10T05:57:57;17.00;99.90
51996;DHT22;38010;53.264;6.592;2023-05-10T06:00:23;17.10;99.90
51996;DHT22;38010;53.264;6.592;2023-05-10T06:02:48;17.10;99.90
51996;DHT22;38010;53.264;6.592;2023-05-10T06:05:14;17.10;99.90
51996;DHT22;38010;53.264;6.592;2023-05-10T06:07:40;17.10;99.90
51996;DHT22;38010;53.264;6.592;2023-05-10T06:10:09;17.10;99.90
51996;DHT22;38010;53.264;6.592;2023-05-10T06:12:36;17.00;99.90
51996;DHT22;38010;53.264;6.592;2023-05-10T06:15:03;17.10;99.90
51996;DHT22;38010;53.264;6.592;2023-05-10T06:17:28;17.10;99.90
51996;DHT22;38010;53.264;6.592;2023-05-10T06:19:55;17.00;99.90
51996;DHT22;38010;53.264;6.592;2023-05-10T06:22:20;17.10;99.90
51996;DHT22;38010;53.264;6.592;2023-05-10T06:24:48;17.10;99.90
51996;DHT22;38010;53.264;6.592;2023-05-10T06:27:15;17.10;99.90
51996;DHT22;38010;53.264;6.592;2023-05-10T06:29:40;17.10;99.90
51996;DHT22;38010;53.264;6.592;2023-05-10T06:32:06;17.00;99.90
51996;DHT22;38010;53.264;6.592;2023-05-10T06:34:32;17.10;99.90
51996;DHT22;38010;53.264;6.592;2023-05-10T06:36:58;17.00;99.90
51996;DHT22;38010;53.264;6.592;2023-05-10T06:39:23;17.10;99.90
51996;DHT22;38010;53.264;6.592;2023-05-10T06:41:49;17.10;99.90
51996;DHT22;38010;53.264;6.592;2023-05-10T06:44:15;17.10;99.90
51996;DHT22;38010;53.264;6.592;2023-05-10T06:46:41;17.00;99.90
51996;DHT22;38010;53.264;6.592;2023-05-10T06:49:07;17.00;99.90
51996;DHT22;38010;53.264;6.592;2023-05-10T06:51:33;17.00;99.90
51996;DHT22;38010;53.264;6.592;2023-05-10T06:53:59;17.00;99.90
51996;DHT22;38010;53.264;6.592;2023-05-10T06:56:24;17.00;99.90
51996;DHT22;38010;53.264;6.592;2023-05-10T06:58:50;17.00;99.90
51996;DHT22;38010;53.264;6.592;2023-05-10T07:01:16;17.00;99.90
51996;DHT22;38010;53.264;6.592;2023-05-10T07:03:41;17.00;99.90
51996;DHT22;38010;53.264;6.592;2023-05-10T07:06:07;17.00;99.90
51996;DHT22;38010;53.264;6.592;2023-05-10T07:08:33;17.00;99.90
51996;DHT22;38010;53.264;6.592;2023-05-10T07:11:03;17.00;99.90
51996;DHT22;38010;53.264;6.592;2023-05-10T07:13:33;17.00;99.90
51996;DHT22;38010;53.264;6.592;2023-05-10T07:16:00;17.00;99.90
51996;DHT22;38010;53.264;6.592;2023-05-10T07:18:26;17.00;99.90
51996;DHT22;38010;53.264;6.592;2023-05-10T07:20:52;17.10;99.90
51996;DHT22;38010;53.264;6.592;2023-05-10T07:23:17;17.10;99.90
51996;DHT22;38010;53.264;6.592;2023-05-10T07:25:47;17.20;99.90
51996;DHT22;38010;53.264;6.592;2023-05-10T07:28:14;17.20;99.90
51996;DHT22;38010;53.264;6.592;2023-05-10T07:30:40;17.20;99.90
51996;DHT22;38010;53.264;6.592;2023-05-10T07:33:06;17.30;99.90
51996;DHT22;38010;53.264;6.592;2023-05-10T07:35:32;17.40;99.90
51996;DHT22;38010;53.264;6.592;2023-05-10T07:37:58;17.40;99.90
51996;DHT22;38010;53.264;6.592;2023-05-10T07:40:24;17.40;99.90
51996;DHT22;38010;53.264;6.592;2023-05-10T07:42:49;17.50;99.90
51996;DHT22;38010;53.264;6.592;2023-05-10T07:45:15;17.50;99.90
51996;DHT22;38010;53.264;6.592;2023-05-10T07:47:41;17.60;99.90
51996;DHT22;38010;53.264;6.592;2023-05-10T07:50:07;17.60;99.90
51996;DHT22;38010;53.264;6.592;2023-05-10T07:52:33;17.60;99.90
51996;DHT22;38010;53.264;6.592;2023-05-10T07:54:58;17.60;99.90
51996;DHT22;38010;53.264;6.592;2023-05-10T07:57:24;17.50;99.90
51996;DHT22;38010;53.264;6.592;2023-05-10T07:59:50;17.50;99.90
51996;DHT22;38010;53.264;6.592;2023-05-10T08:02:16;17.50;99.90
51996;DHT22;38010;53.264;6.592;2023-05-10T08:04:41;17.50;99.90
51996;DHT22;38010;53.264;6.592;2023-05-10T08:07:07;17.50;99.90
51996;DHT22;38010;53.264;6.592;2023-05-10T08:09:33;17.50;99.90
51996;DHT22;38010;53.264;6.592;2023-05-10T08:11:59;17.50;99.90
51996;DHT22;38010;53.264;6.592;2023-05-10T08:14:28;17.40;99.90
51996;DHT22;38010;53.264;6.592;2023-05-10T08:16:55;17.40;99.90
51996;DHT22;38010;53.264;6.592;2023-05-10T08:19:21;17.40;99.90
51996;DHT22;38010;53.264;6.592;2023-05-10T08:21:47;17.40;99.90
51996;DHT22;38010;53.264;6.592;2023-05-10T08:24:13;17.40;99.90
51996;DHT22;38010;53.264;6.592;2023-05-10T08:26:39;17.40;99.90
51996;DHT22;38010;53.264;6.592;2023-05-10T08:29:04;17.40;99.90
51996;DHT22;38010;53.264;6.592;2023-05-10T08:31:30;17.30;99.90
51996;DHT22;38010;53.264;6.592;2023-05-10T08:33:56;17.40;99.90
51996;DHT22;38010;53.264;6.592;2023-05-10T08:36:21;17.30;99.90
51996;DHT22;38010;53.264;6.592;2023-05-10T08:38:53;17.30;99.90
51996;DHT22;38010;53.264;6.592;2023-05-10T08:41:23;17.30;99.90
51996;DHT22;38010;53.264;6.592;2023-05-10T08:43:52;17.30;99.90
51996;DHT22;38010;53.264;6.592;2023-05-10T08:46:20;17.30;99.90
51996;DHT22;38010;53.264;6.592;2023-05-10T08:48:47;17.30;99.90
51996;DHT22;38010;53.264;6.592;2023-05-10T08:51:17;17.30;99.90
51996;DHT22;38010;53.264;6.592;2023-05-10T08:53:43;17.30;99.90
51996;DHT22;38010;53.264;6.592;2023-05-10T08:56:09;17.30;99.90
51996;DHT22;38010;53.264;6.592;2023-05-10T08:58:35;17.30;99.90
51996;DHT22;38010;53.264;6.592;2023-05-10T09:01:02;17.30;99.90
51996;DHT22;38010;53.264;6.592;2023-05-10T09:03:29;17.30;99.90
51996;DHT22;38010;53.264;6.592;2023-05-10T09:05:55;17.30;99.90
51996;DHT22;38010;53.264;6.592;2023-05-10T09:08:23;17.20;99.90
51996;DHT22;38010;53.264;6.592;2023-05-10T09:10:51;17.20;99.90
51996;DHT22;38010;53.264;6.592;2023-05-10T09:13:17;17.20;99.90
51996;DHT22;38010;53.264;6.592;2023-05-10T09:15:44;17.30;99.90
51996;DHT22;38010;53.264;6.592;2023-05-10T09:18:11;17.30;99.90
51996;DHT22;38010;53.264;6.592;2023-05-10T09:20:36;17.20;99.90
51996;DHT22;38010;53.264;6.592;2023-05-10T09:23:02;17.30;99.90
51996;DHT22;38010;53.264;6.592;2023-05-10T09:25:28;17.30;99.90
51996;DHT22;38010;53.264;6.592;2023-05-10T09:27:54;17.30;99.90
51996;DHT22;38010;53.264;6.592;2023-05-10T09:30:25;17.30;99.90
51996;DHT22;38010;53.264;6.592;2023-05-10T09:32:52;17.30;99.90
51996;DHT22;38010;53.264;6.592;2023-05-10T09:35:20;17.30;99.90
51996;DHT22;38010;53.264;6.592;2023-05-10T09:37:49;17.30;99.90
51996;DHT22;38010;53.264;6.592;2023-05-10T09:40:23;17.30;99.90
51996;DHT22;38010;53.264;6.592;2023-05-10T09:45:25;17.30;99.90
51996;DHT22;38010;53.264;6.592;2023-05-10T09:47:52;17.30;99.90
51996;DHT22;38010;53.264;6.592;2023-05-10T09:50:19;17.30;99.90
51996;DHT22;38010;53.264;6.592;2023-05-10T09:52:52;17.30;99.90
51996;DHT22;38010;53.264;6.592;2023-05-10T09:55:44;17.30;99.90
51996;DHT22;38010;53.264;6.592;2023-05-10T09:58:11;17.30;99.90
51996;DHT22;38010;53.264;6.592;2023-05-10T10:00:39;17.30;99.90
51996;DHT22;38010;53.264;6.592;2023-05-10T10:03:12;17.30;99.90
51996;DHT22;38010;53.264;6.592;2023-05-10T10:05:40;17.30;99.90
51996;DHT22;38010;53.264;6.592;2023-05-10T10:08:08;17.30;99.90
51996;DHT22;38010;53.264;6.592;2023-05-10T10:10:34;17.30;99.90
51996;DHT22;38010;53.264;6.592;2023-05-10T10:13:00;17.30;99.90
51996;DHT22;38010;53.264;6.592;2023-05-10T10:15:26;17.30;99.90
51996;DHT22;38010;53.264;6.592;2023-05-10T10:17:52;17.30;99.90
51996;DHT22;38010;53.264;6.592;2023-05-10T10:20:20;17.30;99.90
51996;DHT22;38010;53.264;6.592;2023-05-10T10:22:46;17.30;99.90
51996;DHT22;38010;53.264;6.592;2023-05-10T10:25:17;17.30;99.90
51996;DHT22;38010;53.264;6.592;2023-05-10T10:30:41;17.30;99.90
51996;DHT22;38010;53.264;6.592;2023-05-10T10:33:38;17.30;99.90
51996;DHT22;38010;53.264;6.592;2023-05-10T10:36:06;17.30;99.90
51996;DHT22;38010;53.264;6.592;2023-05-10T10:41:28;17.30;99.90
51996;DHT22;38010;53.264;6.592;2023-05-10T10:44:23;17.30;99.90
51996;DHT22;38010;53.264;6.592;2023-05-10T10:52:26;17.40;99.90
51996;DHT22;38010;53.264;6.592;2023-05-10T11:02:59;17.40;99.90
51996;DHT22;38010;53.264;6.592;2023-05-10T11:07:55;17.40;99.90
51996;DHT22;38010;53.264;6.592;2023-05-10T11:10:22;17.40;99.90
51996;DHT22;38010;53.264;6.592;2023-05-10T11:15:19;17.40;99.90
51996;DHT22;38010;53.264;6.592;2023-05-10T11:17:45;17.40;99.90
51996;DHT22;38010;53.264;6.592;2023-05-10T11:20:17;17.40;99.90
51996;DHT22;38010;53.264;6.592;2023-05-10T11:22:52;17.40;99.90
51996;DHT22;38010;53.264;6.592;2023-05-10T11:25:19;17.40;99.90
51996;DHT22;38010;53.264;6.592;2023-05-10T11:27:45;17.30;99.90
51996;DHT22;38010;53.264;6.592;2023-05-10T11:30:13;17.40;99.90
51996;DHT22;38010;53.264;6.592;2023-05-10T11:32:40;17.40;99.90
51996;DHT22;38010;53.264;6.592;2023-05-10T11:35:09;17.40;99.90
51996;DHT22;38010;53.264;6.592;2023-05-10T11:37:35;17.40;99.90
51996;DHT22;38010;53.264;6.592;2023-05-10T11:40:01;17.40;99.90
51996;DHT22;38010;53.264;6.592;2023-05-10T11:42:28;17.40;99.90
51996;DHT22;38010;53.264;6.592;2023-05-10T11:44:54;17.40;99.90
51996;DHT22;38010;53.264;6.592;2023-05-10T11:47:20;17.40;99.90
51996;DHT22;38010;53.264;6.592;2023-05-10T11:49:47;17.40;99.90
51996;DHT22;38010;53.264;6.592;2023-05-10T11:52:13;17.40;99.90
51996;DHT22;38010;53.264;6.592;2023-05-10T11:54:54;17.40;99.90
51996;DHT22;38010;53.264;6.592;2023-05-10T11:57:21;17.40;99.90
51996;DHT22;38010;53.264;6.592;2023-05-10T11:59:54;17.40;99.90
51996;DHT22;38010;53.264;6.592;2023-05-10T12:02:20;17.40;99.90
51996;DHT22;38010;53.264;6.592;2023-05-10T12:04:46;17.40;99.90
51996;DHT22;38010;53.264;6.592;2023-05-10T12:07:12;17.40;99.90
51996;DHT22;38010;53.264;6.592;2023-05-10T12:10:28;17.40;99.90
51996;DHT22;38010;53.264;6.592;2023-05-10T12:12:42;17.40;99.90
51996;DHT22;38010;53.264;6.592;2023-05-10T12:15:19;17.40;99.90
51996;DHT22;38010;53.264;6.592;2023-05-10T12:17:46;17.40;99.90
51996;DHT22;38010;53.264;6.592;2023-05-10T12:20:20;17.40;99.90
51996;DHT22;38010;53.264;6.592;2023-05-10T12:22:56;17.40;99.90
51996;DHT22;38010;53.264;6.592;2023-05-10T12:25:29;17.40;99.90
51996;DHT22;38010;53.264;6.592;2023-05-10T12:27:56;17.40;99.90
51996;DHT22;38010;53.264;6.592;2023-05-10T12:30:30;17.40;99.90
51996;DHT22;38010;53.264;6.592;2023-05-10T12:33:03;17.40;99.90
51996;DHT22;38010;53.264;6.592;2023-05-10T12:35:43;17.40;99.90
51996;DHT22;38010;53.264;6.592;2023-05-10T12:38:28;17.40;99.90
51996;DHT22;38010;53.264;6.592;2023-05-10T12:41:02;17.40;99.90
51996;DHT22;38010;53.264;6.592;2023-05-10T12:43:28;17.30;99.90
51996;DHT22;38010;53.264;6.592;2023-05-10T12:45:54;17.40;99.90
51996;DHT22;38010;53.264;6.592;2023-05-10T12:48:20;17.30;99.90
51996;DHT22;38010;53.264;6.592;2023-05-10T12:50:46;17.30;99.90
51996;DHT22;38010;53.264;6.592;2023-05-10T12:53:14;17.40;99.90
51996;DHT22;38010;53.264;6.592;2023-05-10T12:55:41;17.30;99.90
51996;DHT22;38010;53.264;6.592;2023-05-10T12:58:07;17.40;99.90
51996;DHT22;38010;53.264;6.592;2023-05-10T13:00:33;17.30;99.90
51996;DHT22;38010;53.264;6.592;2023-05-10T13:02:58;17.40;99.90
51996;DHT22;38010;53.264;6.592;2023-05-10T13:05:24;17.40;99.90
51996;DHT22;38010;53.264;6.592;2023-05-10T13:07:50;17.30;99.90
51996;DHT22;38010;53.264;6.592;2023-05-10T13:10:16;17.30;99.90
51996;DHT22;38010;53.264;6.592;2023-05-10T13:12:41;17.30;99.90
51996;DHT22;38010;53.264;6.592;2023-05-10T13:15:07;17.30;99.90
51996;DHT22;38010;53.264;6.592;2023-05-10T13:17:33;17.40;99.90
51996;DHT22;38010;53.264;6.592;2023-05-10T13:19:59;17.30;99.90
51996;DHT22;38010;53.264;6.592;2023-05-10T13:22:25;17.30;99.90
51996;DHT22;38010;53.264;6.592;2023-05-10T13:24:50;17.30;99.90
51996;DHT22;38010;53.264;6.592;2023-05-10T13:27:16;17.40;99.90
51996;DHT22;38010;53.264;6.592;2023-05-10T13:29:42;17.40;99.90
51996;DHT22;38010;53.264;6.592;2023-05-10T13:32:07;17.40;99.90
51996;DHT22;38010;53.264;6.592;2023-05-10T13:34:33;17.40;99.90
51996;DHT22;38010;53.264;6.592;2023-05-10T13:37:01;17.40;99.90
51996;DHT22;38010;53.264;6.592;2023-05-10T13:39:27;17.40;99.90
51996;DHT22;38010;53.264;6.592;2023-05-10T13:41:52;17.50;99.90
51996;DHT22;38010;53.264;6.592;2023-05-10T13:44:20;17.40;99.90
51996;DHT22;38010;53.264;6.592;2023-05-10T13:46:46;17.40;99.90
51996;DHT22;38010;53.264;6.592;2023-05-10T13:49:12;17.40;99.90
51996;DHT22;38010;53.264;6.592;2023-05-10T13:51:37;17.50;99.90
51996;DHT22;38010;53.264;6.592;2023-05-10T13:54:03;17.50;99.90
51996;DHT22;38010;53.264;6.592;2023-05-10T13:56:29;17.50;99.90
51996;DHT22;38010;53.264;6.592;2023-05-10T13:58:56;17.50;99.90
51996;DHT22;38010;53.264;6.592;2023-05-10T14:01:22;17.50;99.90
51996;DHT22;38010;53.264;6.592;2023-05-10T14:03:48;17.50;99.90
51996;DHT22;38010;53.264;6.592;2023-05-10T14:06:14;17.50;99.90
51996;DHT22;38010;53.264;6.592;2023-05-10T14:08:40;17.50;99.90
51996;DHT22;38010;53.264;6.592;2023-05-10T14:11:05;17.50;99.90
51996;DHT22;38010;53.264;6.592;2023-05-10T14:13:31;17.50;99.90
51996;DHT22;38010;53.264;6.592;2023-05-10T14:15:57;17.50;99.90
51996;DHT22;38010;53.264;6.592;2023-05-10T14:18:28;17.50;99.90
51996;DHT22;38010;53.264;6.592;2023-05-10T14:20:54;17.50;99.90
51996;DHT22;38010;53.264;6.592;2023-05-10T14:23:22;17.40;99.90
51996;DHT22;38010;53.264;6.592;2023-05-10T14:25:50;17.50;99.90
51996;DHT22;38010;53.264;6.592;2023-05-10T14:28:16;17.40;99.90
51996;DHT22;38010;53.264;6.592;2023-05-10T14:30:46;17.40;99.90
51996;DHT22;38010;53.264;6.592;2023-05-10T14:33:12;17.40;99.90
51996;DHT22;38010;53.264;6.592;2023-05-10T14:35:38;17.50;99.90
51996;DHT22;38010;53.264;6.592;2023-05-10T14:38:04;17.50;99.90
51996;DHT22;38010;53.264;6.592;2023-05-10T14:40:30;17.50;99.90
51996;DHT22;38010;53.264;6.592;2023-05-10T14:42:56;17.50;99.90
51996;DHT22;38010;53.264;6.592;2023-05-10T14:45:22;17.50;99.90
51996;DHT22;38010;53.264;6.592;2023-05-10T14:47:49;17.50;99.90
51996;DHT22;38010;53.264;6.592;2023-05-10T14:50:16;17.60;99.90
51996;DHT22;38010;53.264;6.592;2023-05-10T14:52:44;17.50;99.90
51996;DHT22;38010;53.264;6.592;2023-05-10T14:55:10;17.60;99.90
51996;DHT22;38010;53.264;6.592;2023-05-10T14:57:36;17.60;99.90
51996;DHT22;38010;53.264;6.592;2023-05-10T15:00:03;17.60;99.90
51996;DHT22;38010;53.264;6.592;2023-05-10T15:02:30;17.60;99.90
51996;DHT22;38010;53.264;6.592;2023-05-10T15:04:56;17.60;99.90
51996;DHT22;38010;53.264;6.592;2023-05-10T15:07:23;17.60;99.90
51996;DHT22;38010;53.264;6.592;2023-05-10T15:09:50;17.60;99.90
51996;DHT22;38010;53.264;6.592;2023-05-10T15:12:17;17.60;99.90
51996;DHT22;38010;53.264;6.592;2023-05-10T15:14:43;17.60;99.90
51996;DHT22;38010;53.264;6.592;2023-05-10T15:17:08;17.60;99.90
51996;DHT22;38010;53.264;6.592;2023-05-10T15:19:34;17.60;99.90
51996;DHT22;38010;53.264;6.592;2023-05-10T15:22:00;17.60;99.90
51996;DHT22;38010;53.264;6.592;2023-05-10T15:24:26;17.60;99.90
51996;DHT22;38010;53.264;6.592;2023-05-10T15:26:51;17.60;99.90
51996;DHT22;38010;53.264;6.592;2023-05-10T15:29:17;17.60;99.90
51996;DHT22;38010;53.264;6.592;2023-05-10T15:31:49;17.60;99.90
51996;DHT22;38010;53.264;6.592;2023-05-10T15:34:16;17.60;99.90
51996;DHT22;38010;53.264;6.592;2023-05-10T15:36:42;17.60;99.90
51996;DHT22;38010;53.264;6.592;2023-05-10T15:39:08;17.60;99.90
51996;DHT22;38010;53.264;6.592;2023-05-10T15:41:35;17.70;99.90
51996;DHT22;38010;53.264;6.592;2023-05-10T15:44:01;17.60;99.90
51996;DHT22;38010;53.264;6.592;2023-05-10T15:46:28;17.60;99.90
51996;DHT22;38010;53.264;6.592;2023-05-10T15:48:53;17.60;99.90
51996;DHT22;38010;53.264;6.592;2023-05-10T15:51:19;17.60;99.90
51996;DHT22;38010;53.264;6.592;2023-05-10T15:53:45;17.60;99.90
51996;DHT22;38010;53.264;6.592;2023-05-10T15:56:11;17.50;99.90
51996;DHT22;38010;53.264;6.592;2023-05-10T15:58:40;17.50;99.90
51996;DHT22;38010;53.264;6.592;2023-05-10T16:01:06;17.60;99.90
51996;DHT22;38010;53.264;6.592;2023-05-10T16:03:33;17.50;99.90
51996;DHT22;38010;53.264;6.592;2023-05-10T16:05:59;17.50;99.90
51996;DHT22;38010;53.264;6.592;2023-05-10T16:08:26;17.50;99.90
51996;DHT22;38010;53.264;6.592;2023-05-10T16:10:52;17.50;99.90
51996;DHT22;38010;53.264;6.592;2023-05-10T16:13:18;17.50;99.90
51996;DHT22;38010;53.264;6.592;2023-05-10T16:15:44;17.50;99.90
51996;DHT22;38010;53.264;6.592;2023-05-10T16:18:10;17.50;99.90